Time;durP1;ratioP1;P1;durP2;ratioP2;P2;SDS_P1;SDS_P2;PMS_P1;PMS_P2;Temp;Humidity;BMP_temperature;BMP_pressure;BME280_temperature;BME280_humidity;BME280_pressure;Samples;Min_cycle;Max_cycle;Signal;HPM_P1;HPM_P2
2023/04/14 00:01:39;;;;;;;6.53;4.07;;;;;;;8.00;94.34;99811.97;5033235;28;20411;-78
2023/04/14 00:04:05;;;;;;;6.45;3.67;;;;;;;7.84;94.98;99817.31;5042816;28;20086;-78
2023/04/14 00:06:31;;;;;;;8.15;4.13;;;;;;;7.79;95.78;99816.47;5046643;28;20036;-78
2023/04/14 00:08:57;;;;;;;6.75;3.42;;;;;;;7.86;94.49;99802.44;5025105;28;20483;-78
2023/04/14 00:11:22;;;;;;;6.90;3.35;;;;;;;7.92;93.27;99804.13;5046234;28;20102;-78
2023/04/14 00:13:47;;;;;;;6.03;3.72;;;;;;;7.93;93.31;99799.75;5048616;28;20558;-77
2023/04/14 00:16:13;;;;;;;7.50;3.97;;;;;;;7.94;93.50;99806.72;5051816;28;20510;-78
2023/04/14 00:18:38;;;;;;;6.93;3.90;;;;;;;7.98;93.88;99800.59;5048899;28;20538;-77
2023/04/14 00:21:03;;;;;;;7.97;3.80;;;;;;;8.01;93.71;99803.19;5046246;28;20107;-78
2023/04/14 00:23:29;;;;;;;6.75;3.75;;;;;;;8.02;93.52;99794.44;5049741;28;20487;-77
2023/04/14 00:25:54;;;;;;;7.80;4.70;;;;;;;8.08;93.95;99797.00;5046567;28;20391;-78
2023/04/14 00:28:20;;;;;;;7.43;4.07;;;;;;;8.00;94.27;99786.56;5045490;28;20048;-78
2023/04/14 00:30:45;;;;;;;6.93;3.50;;;;;;;8.00;93.35;99783.94;5025420;28;20036;-78
2023/04/14 00:33:11;;;;;;;6.85;3.45;;;;;;;8.03;93.18;99790.91;5046540;28;20479;-78
2023/04/14 00:35:36;;;;;;;6.30;3.03;;;;;;;7.97;93.31;99781.34;5045050;28;20040;-78
2023/04/14 00:38:02;;;;;;;7.80;4.30;;;;;;;7.93;93.80;99784.84;5043591;28;20036;-78
2023/04/14 00:40:28;;;;;;;7.47;3.72;;;;;;;7.93;94.20;99784.84;5044375;28;20166;-77
2023/04/14 00:42:54;;;;;;;6.40;3.67;;;;;;;8.00;93.26;99780.44;5025919;28;20068;-78
2023/04/14 00:45:19;;;;;;;8.40;3.75;;;;;;;8.04;92.74;99787.41;5045616;28;20044;-77
2023/04/14 00:47:46;;;;;;;7.50;3.90;;;;;;;8.04;92.32;99790.03;5044004;28;20045;-78
2023/04/14 00:50:13;;;;;;;6.72;3.75;;;;;;;8.01;92.33;99783.03;5029548;28;20041;-77
2023/04/14 00:52:41;;;;;;;6.65;4.03;;;;;;;8.02;92.68;99790.06;5044605;28;20045;-78
2023/04/14 00:55:07;;;;;;;8.18;3.97;;;;;;;7.95;93.83;99792.75;5043089;28;20033;-78
2023/04/14 00:57:33;;;;;;;8.15;4.20;;;;;;;7.99;92.68;99789.19;5044946;28;20491;-78
2023/04/14 01:00:00;;;;;;;8.00;4.30;;;;;;;8.06;92.31;99790.88;5042629;28;20026;-78
2023/04/14 01:02:25;;;;;;;8.18;4.63;;;;;;;8.00;92.81;99786.56;5045215;28;20044;-78
2023/04/14 01:04:51;;;;;;;9.07;4.20;;;;;;;8.02;92.97;99783.94;5045668;28;20029;-78
2023/04/14 01:07:18;;;;;;;10.10;5.20;;;;;;;8.04;93.21;99784.75;5024438;28;20487;-78
2023/04/14 01:09:44;;;;;;;7.82;4.55;;;;;;;8.06;93.08;99790.88;5045426;28;20041;-77
2023/04/14 01:12:34;;;;;;;9.27;4.55;;;;;;;8.04;93.46;99782.13;5041552;28;20099;-77
2023/04/14 01:15:06;;;;;;;8.32;4.60;;;;;;;7.93;95.75;99789.25;5041137;28;20124;-77
2023/04/14 01:17:32;;;;;;;;;;;;;;;7.82;96.95;99787.56;5042698;28;20076;-78
2023/04/14 01:20:25;;;;;;;7.05;4.47;;;;;;;7.87;94.76;99790.16;5044474;28;19948;-78
2023/04/14 01:23:01;;;;;;;8.48;4.78;;;;;;;7.86;96.00;99794.56;5049303;28;20032;-77
2023/04/14 01:25:56;;;;;;;8.38;4.55;;;;;;;7.90;96.08;99795.38;5025322;28;20491;-78
2023/04/14 01:28:59;;;;;;;8.10;4.82;;;;;;;8.01;95.94;99798.81;5031191;28;20067;-77
2023/04/14 01:31:33;;;;;;;8.05;4.60;;;;;;;8.06;95.63;99801.41;5043548;28;20068;-77
2023/04/14 01:34:09;;;;;;;7.75;4.43;;;;;;;8.09;95.31;99801.38;5045070;28;20029;-78
2023/04/14 01:36:42;;;;;;;7.88;4.50;;;;;;;8.11;95.72;99800.47;5025657;28;20041;-78
2023/04/14 01:39:13;;;;;;;9.13;4.57;;;;;;;8.13;95.40;99798.72;5023460;28;20597;-78
2023/04/14 01:41:42;;;;;;;7.20;4.22;;;;;;;8.14;95.44;99804.84;5028520;28;20071;-78
2023/04/14 01:44:09;;;;;;;6.75;3.60;;;;;;;8.12;96.41;99807.50;5043990;28;20069;-78
2023/04/14 01:46:36;;;;;;;9.25;3.60;;;;;;;8.10;97.58;99809.25;5044903;28;20032;-78
2023/04/14 01:49:02;;;;;;;7.38;3.95;;;;;;;8.04;99.09;99805.78;5044197;28;20028;-77
2023/04/14 01:51:29;;;;;;;5.88;3.30;;;;;;;7.90;100.00;99805.91;5050711;28;20068;-78
2023/04/14 01:53:56;;;;;;;6.88;3.70;;;;;;;7.87;100.00;99801.53;5050951;28;20026;-78
2023/04/14 01:56:23;;;;;;;7.40;3.72;;;;;;;7.81;100.00;99806.84;5024582;28;20037;-78
2023/04/14 01:58:52;;;;;;;5.78;3.45;;;;;;;7.84;99.17;99801.56;5049159;28;20032;-79
2023/04/14 02:01:18;;;;;;;7.25;3.75;;;;;;;7.84;98.23;99808.56;5025153;28;20443;-78
2023/04/14 02:03:45;;;;;;;6.50;3.47;;;;;;;7.80;99.04;99798.97;5025869;28;20549;-78
2023/04/14 02:06:12;;;;;;;6.78;3.70;;;;;;;7.77;98.78;99804.25;5026751;28;20029;-78
2023/04/14 02:08:40;;;;;;;6.50;3.50;;;;;;;7.69;100.00;99799.03;5034831;28;20072;-78
2023/04/14 02:11:08;;;;;;;7.10;4.18;;;;;;;7.71;99.94;99810.41;5030871;28;20037;-77
2023/04/14 02:13:36;;;;;;;8.27;3.90;;;;;;;7.81;99.76;99822.59;5025745;28;20078;-76
2023/04/14 02:16:04;;;;;;;7.00;4.20;;;;;;;7.86;98.35;99815.56;5023775;28;20034;-79
2023/04/14 02:18:30;;;;;;;7.28;4.43;;;;;;;7.87;98.45;99816.44;5028199;28;20040;-77
2023/04/14 02:21:00;;;;;;;7.20;4.00;;;;;;;7.83;98.73;99810.34;5026213;28;20025;-78
2023/04/14 02:23:25;;;;;;;7.35;4.07;;;;;;;7.75;98.44;99814.75;5028911;28;20135;-78
2023/04/14 02:26:14;;;;;;;7.90;4.38;;;;;;;7.75;100.00;99811.25;5028870;28;20086;-78
2023/04/14 02:28:51;;;;;;;6.22;3.45;;;;;;;7.83;100.00;99806.81;5041941;28;20061;-79
2023/04/14 02:31:22;;;;;;;7.10;4.28;;;;;;;7.94;100.00;99812.00;5040606;28;20106;-78
2023/04/14 02:33:52;;;;;;;7.93;4.40;;;;;;;8.00;100.00;99817.22;5040543;28;20041;-78
2023/04/14 02:36:22;;;;;;;7.40;4.15;;;;;;;8.03;100.00;99822.44;5046446;28;20036;-77
2023/04/14 02:38:56;;;;;;;8.60;4.55;;;;;;;8.04;99.48;99819.81;5041807;28;20044;-77
2023/04/14 02:41:27;;;;;;;9.38;3.75;;;;;;;8.12;98.31;99818.00;5025238;28;20479;-78
2023/04/14 02:44:02;;;;;;;8.30;3.67;;;;;;;8.18;96.04;99822.34;5030566;28;20030;-78
2023/04/14 02:46:34;;;;;;;7.75;3.80;;;;;;;8.16;95.69;99818.84;5041172;28;20131;-77
2023/04/14 02:49:04;;;;;;;6.88;3.72;;;;;;;8.20;95.18;99820.59;5023248;28;20048;-77
2023/04/14 02:51:34;;;;;;;6.45;3.45;;;;;;;8.24;94.68;99809.13;5027523;28;20052;-78
2023/04/14 02:54:02;;;;;;;6.93;2.95;;;;;;;8.28;94.97;99813.50;5011210;28;20086;-78
2023/04/14 02:56:40;;;;;;;6.03;3.30;;;;;;;8.37;94.98;99809.91;5023883;28;20499;-78
2023/04/14 02:59:06;;;;;;;8.00;3.30;;;;;;;8.46;95.00;99807.25;5023568;28;20111;-78
2023/04/14 03:01:33;;;;;;;7.68;3.42;;;;;;;8.47;96.30;99802.84;5024049;28;20029;-77
2023/04/14 03:04:00;;;;;;;7.22;3.38;;;;;;;8.53;96.21;99787.00;5040761;28;20029;-78
2023/04/14 03:06:27;;;;;;;6.20;3.80;;;;;;;8.60;96.01;99782.56;5024700;28;20041;-78
2023/04/14 03:08:55;;;;;;;7.40;3.97;;;;;;;8.65;96.50;99784.25;5027318;28;20079;-77
2023/04/14 03:11:22;;;;;;;7.10;4.13;;;;;;;8.60;97.79;99778.19;5021933;28;20079;-78
2023/04/14 03:13:51;;;;;;;6.00;3.20;;;;;;;8.54;98.35;99775.59;5025386;28;20503;-78
2023/04/14 03:16:19;;;;;;;5.97;3.15;;;;;;;8.51;98.26;99778.25;5022033;28;20036;-78
2023/04/14 03:18:47;;;;;;;5.68;3.03;;;;;;;8.46;99.02;99777.44;5024305;28;20037;-78
2023/04/14 03:21:15;;;;;;;7.25;3.05;;;;;;;8.44;98.63;99776.59;5040550;28;20507;-78
2023/04/14 03:23:43;;;;;;;9.27;3.63;;;;;;;8.42;99.15;99775.72;5010281;28;20048;-79
2023/04/14 03:26:10;;;;;;;7.28;4.00;;;;;;;8.31;100.00;99766.16;5045924;28;20041;-78
2023/04/14 03:28:38;;;;;;;7.18;3.53;;;;;;;8.19;100.00;99771.50;5022863;28;20029;-77
2023/04/14 03:31:07;;;;;;;6.28;3.47;;;;;;;8.16;100.00;99774.16;5030657;28;20039;-77
2023/04/14 03:33:47;;;;;;;7.03;2.85;;;;;;;8.14;100.00;99773.28;5031990;28;20032;-77
2023/04/14 03:36:16;;;;;;;5.90;3.55;;;;;;;8.16;100.00;99766.28;5040954;28;20101;-78
2023/04/14 03:38:43;;;;;;;6.50;2.90;;;;;;;8.15;100.00;99763.66;5047214;28;20119;-78
2023/04/14 03:41:09;;;;;;;6.65;3.00;;;;;;;8.19;100.00;99768.00;5030924;28;20033;-77
2023/04/14 03:43:35;;;;;;;6.68;3.13;;;;;;;8.19;100.00;99771.50;5024849;28;20032;-78
2023/04/14 03:46:05;;;;;;;5.22;3.38;;;;;;;8.21;100.00;99767.13;5025059;28;20053;-78
2023/04/14 03:48:35;;;;;;;9.10;4.65;;;;;;;8.18;100.00;99763.66;5022340;28;20068;-77
2023/04/14 03:51:03;;;;;;;10.27;5.20;;;;;;;8.15;100.00;99767.19;5030994;28;20037;-77
2023/04/14 03:53:30;;;;;;;10.45;5.15;;;;;;;8.17;100.00;99772.41;5023573;28;20124;-77
2023/04/14 03:55:58;;;;;;;10.35;4.47;;;;;;;8.09;100.00;99773.31;5027218;28;20561;-77
2023/04/14 03:58:27;;;;;;;11.77;4.25;;;;;;;8.10;100.00;99779.47;5021052;28;20495;-77
2023/04/14 04:00:53;;;;;;;5.53;3.35;;;;;;;8.14;100.00;99778.56;5024694;28;20060;-77
2023/04/14 04:03:20;;;;;;;9.68;3.95;;;;;;;8.17;100.00;99775.03;5040632;28;20029;-77
2023/04/14 04:05:46;;;;;;;7.85;4.50;;;;;;;8.09;100.00;99769.84;5031931;28;20108;-78
2023/04/14 04:08:13;;;;;;;7.97;4.25;;;;;;;8.00;100.00;99777.81;5023872;28;20468;-77
2023/04/14 04:10:41;;;;;;;5.97;3.47;;;;;;;8.01;100.00;99780.41;5023434;28;20037;-77
2023/04/14 04:13:11;;;;;;;5.65;3.60;;;;;;;8.10;100.00;99782.97;5021817;28;20500;-77
2023/04/14 04:15:38;;;;;;;6.07;3.33;;;;;;;8.14;100.00;99794.31;5048700;28;20029;-76
2023/04/14 04:18:06;;;;;;;8.00;3.90;;;;;;;8.16;100.00;99796.94;5027080;28;20072;-77
2023/04/14 04:20:33;;;;;;;6.93;3.65;;;;;;;8.13;100.00;99789.97;5040044;28;20483;-77
2023/04/14 04:23:01;;;;;;;5.68;3.13;;;;;;;8.17;100.00;99782.91;5008357;28;20043;-78
2023/04/14 04:25:27;;;;;;;9.35;4.32;;;;;;;8.20;100.00;99788.13;5026907;28;20026;-76
2023/04/14 04:28:02;;;;;;;8.98;4.93;;;;;;;8.11;100.00;99784.72;5035963;28;20068;-78
2023/04/14 04:30:30;;;;;;;7.60;3.67;;;;;;;8.10;100.00;99792.63;5027529;28;20034;-77
2023/04/14 04:32:56;;;;;;;8.00;3.85;;;;;;;8.13;100.00;99797.84;5024366;28;20033;-77
2023/04/14 04:35:23;;;;;;;7.43;3.72;;;;;;;8.06;100.00;99790.88;5024649;28;20032;-77
2023/04/14 04:37:49;;;;;;;9.57;4.68;;;;;;;7.98;100.00;99787.44;5032477;28;20094;-78
2023/04/14 04:40:15;;;;;;;6.78;3.60;;;;;;;7.97;100.00;99793.59;5020532;28;20029;-78
2023/04/14 04:42:41;;;;;;;6.50;3.55;;;;;;;7.84;100.00;99785.81;5025922;28;20025;-78
2023/04/14 04:45:09;;;;;;;6.88;3.90;;;;;;;7.73;100.00;99779.75;5029688;28;20065;-77
2023/04/14 04:47:35;;;;;;;7.18;3.67;;;;;;;7.76;100.00;99790.25;5028199;28;20554;-77
2023/04/14 04:50:00;;;;;;;6.47;3.20;;;;;;;7.73;100.00;99786.75;5044305;28;20117;-78
2023/04/14 04:52:25;;;;;;;6.82;3.40;;;;;;;7.72;100.00;99791.13;5030197;28;20196;-77
2023/04/14 04:54:51;;;;;;;8.85;4.28;;;;;;;7.64;100.00;99785.91;5048849;28;20028;-77
2023/04/14 04:57:18;;;;;;;6.38;4.13;;;;;;;7.61;100.00;99788.56;5032571;28;20044;-77
2023/04/14 04:59:43;;;;;;;9.43;4.10;;;;;;;7.58;100.00;99796.47;5049650;28;20094;-78
2023/04/14 05:02:08;;;;;;;6.75;3.40;;;;;;;7.62;100.00;99810.44;5046261;28;20028;-78
2023/04/14 05:04:34;;;;;;;6.72;3.35;;;;;;;7.66;100.00;99807.81;5047972;28;20065;-77
2023/04/14 05:07:00;;;;;;;6.47;3.42;;;;;;;7.71;100.00;99801.66;5043928;28;20025;-78
2023/04/14 05:09:26;;;;;;;7.47;3.85;;;;;;;7.74;100.00;99799.88;5043113;28;20029;-77
2023/04/14 05:11:51;;;;;;;6.75;3.85;;;;;;;7.72;100.00;99799.00;5048544;28;20067;-78
2023/04/14 05:14:16;;;;;;;8.38;4.07;;;;;;;7.71;100.00;99801.66;5045365;28;20512;-78
2023/04/14 05:16:42;;;;;;;10.85;4.40;;;;;;;7.62;100.00;99802.56;5034135;28;20037;-78
2023/04/14 05:19:07;;;;;;;6.60;3.45;;;;;;;7.67;100.00;99803.41;5043406;28;20063;-78
2023/04/14 05:21:32;;;;;;;7.38;3.92;;;;;;;7.71;100.00;99799.91;5043136;28;20442;-77
2023/04/14 05:23:59;;;;;;;7.28;3.30;;;;;;;7.78;100.00;99801.63;5049955;28;20491;-77
2023/04/14 05:26:25;;;;;;;5.97;3.65;;;;;;;7.79;100.00;99799.84;5045498;28;20056;-78
2023/04/14 05:28:50;;;;;;;10.65;4.55;;;;;;;7.79;100.00;99787.59;5043565;28;20037;-78
2023/04/14 05:31:15;;;;;;;7.80;4.13;;;;;;;7.75;100.00;99798.97;5042522;28;20037;-77
2023/04/14 05:33:41;;;;;;;11.38;5.63;;;;;;;7.72;100.00;99793.75;5044976;28;20030;-77
2023/04/14 05:36:06;;;;;;;7.38;5.18;;;;;;;7.79;100.00;99803.34;5043927;28;20090;-78
2023/04/14 05:38:32;;;;;;;8.43;4.50;;;;;;;7.94;100.00;99797.13;5042104;28;20069;-77
2023/04/14 05:40:57;;;;;;;9.40;4.75;;;;;;;7.93;100.00;99799.75;5043685;28;20044;-77
2023/04/14 05:43:22;;;;;;;7.55;4.50;;;;;;;7.87;100.00;99801.53;5043717;28;20101;-77
2023/04/14 05:45:48;;;;;;;7.13;4.50;;;;;;;7.97;100.00;99804.13;5034121;28;20467;-77
2023/04/14 05:48:15;;;;;;;8.75;4.60;;;;;;;8.09;100.00;99802.25;5047099;28;20458;-77
2023/04/14 05:50:41;;;;;;;10.98;5.88;;;;;;;8.18;100.00;99788.16;5033645;28;20037;-77
2023/04/14 05:53:06;;;;;;;7.43;4.50;;;;;;;8.20;100.00;99798.66;5048916;28;20036;-77
2023/04/14 05:55:31;;;;;;;8.73;4.30;;;;;;;8.17;100.00;99804.81;5028881;28;20120;-77
2023/04/14 05:57:58;;;;;;;7.65;4.72;;;;;;;8.20;100.00;99810.06;5051371;28;20047;-76
2023/04/14 06:00:24;;;;;;;10.35;5.15;;;;;;;8.31;100.00;99817.88;5042099;28;20511;-76
2023/04/14 06:02:50;;;;;;;8.00;4.20;;;;;;;8.45;100.00;99820.41;5029893;28;20489;-76
2023/04/14 06:05:16;;;;;;;7.07;4.78;;;;;;;8.44;100.00;99814.28;5037282;28;20029;-76
2023/04/14 06:07:42;;;;;;;10.70;5.93;;;;;;;8.59;100.00;99815.00;5043720;28;20029;-77
2023/04/14 06:10:08;;;;;;;11.05;5.50;;;;;;;8.59;100.00;99812.38;5040282;28;20103;-77
2023/04/14 06:12:33;;;;;;;7.60;4.13;;;;;;;8.61;100.00;99816.72;5045666;28;20067;-76
2023/04/14 06:14:58;;;;;;;9.00;4.40;;;;;;;8.70;100.00;99813.16;5025196;28;20747;-76
2023/04/14 06:17:24;;;;;;;10.68;4.35;;;;;;;8.69;100.00;99811.41;5033784;28;20112;-76
2023/04/14 06:19:49;;;;;;;7.22;3.78;;;;;;;8.73;100.00;99810.50;5046884;28;20128;-76
2023/04/14 06:22:18;;;;;;;8.32;4.32;;;;;;;8.74;100.00;99812.22;5044222;28;20112;-76
2023/04/14 06:24:46;;;;;;;7.78;3.97;;;;;;;8.80;100.00;99811.28;5045738;28;20057;-76
2023/04/14 06:27:12;;;;;;;9.88;5.30;;;;;;;8.87;100.00;99819.09;5045338;28;20083;-76
2023/04/14 06:29:38;;;;;;;10.27;5.38;;;;;;;8.95;100.00;99817.25;5042094;28;20468;-76
2023/04/14 06:32:03;;;;;;;14.75;5.53;;;;;;;9.06;100.00;99819.75;5050601;28;20051;-76
2023/04/14 06:34:28;;;;;;;9.13;4.97;;;;;;;9.13;100.00;99820.59;5043301;28;20033;-76
2023/04/14 06:36:55;;;;;;;10.90;4.55;;;;;;;9.13;100.00;99816.19;5042481;28;20052;-77
2023/04/14 06:39:21;;;;;;;8.32;4.75;;;;;;;9.16;100.00;99815.28;5047094;28;20124;-76
2023/04/14 06:41:46;;;;;;;8.98;4.82;;;;;;;9.00;100.00;99809.31;5044699;28;20107;-76
2023/04/14 06:44:12;;;;;;;7.45;4.55;;;;;;;8.98;100.00;99813.72;5040809;28;20037;-76
2023/04/14 06:46:38;;;;;;;7.95;4.65;;;;;;;9.02;100.00;99817.22;5042893;28;20036;-77
2023/04/14 06:49:03;;;;;;;8.00;4.60;;;;;;;9.11;100.00;99809.19;5044495;28;20060;-77
2023/04/14 06:51:31;;;;;;;8.63;4.60;;;;;;;9.26;100.00;99813.41;5032130;28;20064;-76
2023/04/14 06:53:56;;;;;;;8.90;4.22;;;;;;;9.21;100.00;99811.69;5029445;28;20036;-76
2023/04/14 06:56:22;;;;;;;6.47;4.13;;;;;;;9.20;100.00;99809.97;5040398;28;20034;-76
2023/04/14 06:58:47;;;;;;;9.30;4.45;;;;;;;9.30;100.00;99801.94;5043078;28;20037;-77
2023/04/14 07:01:12;;;;;;;8.35;4.60;;;;;;;9.38;100.00;99805.38;5043603;28;20033;-76
2023/04/14 07:03:38;;;;;;;7.15;3.42;;;;;;;9.34;100.00;99808.91;5033399;28;20372;-77
2023/04/14 07:06:05;;;;;;;6.65;3.35;;;;;;;9.29;100.00;99803.69;5045388;28;20071;-77
2023/04/14 07:08:31;;;;;;;6.95;3.35;;;;;;;9.18;100.00;99795.06;5041066;28;20048;-77
2023/04/14 07:11:01;;;;;;;5.80;3.30;;;;;;;9.24;100.00;99797.63;5027616;28;20052;-77
2023/04/14 07:13:27;;;;;;;6.65;3.40;;;;;;;9.39;100.00;99807.09;5040082;28;20035;-76
2023/04/14 07:15:53;;;;;;;6.25;3.50;;;;;;;9.40;100.00;99803.56;5024368;28;20594;-76
2023/04/14 07:18:18;;;;;;;6.82;3.67;;;;;;;9.37;100.00;99795.69;5031416;28;20033;-77
2023/04/14 07:20:44;;;;;;;6.53;3.55;;;;;;;9.26;100.00;99782.69;5041270;28;20032;-77
2023/04/14 07:23:09;;;;;;;10.15;4.68;;;;;;;9.15;100.00;99787.22;5039694;28;20036;-76
2023/04/14 07:25:37;;;;;;;10.77;3.78;;;;;;;8.98;100.00;99795.28;5026590;28;20156;-76
2023/04/14 07:28:05;;;;;;;7.20;3.63;;;;;;;8.93;100.00;99792.75;5046462;28;20047;-76
2023/04/14 07:30:30;;;;;;;5.40;3.67;;;;;;;8.97;100.00;99790.94;5034606;28;20458;-76
2023/04/14 07:32:56;;;;;;;6.82;3.67;;;;;;;8.95;100.00;99790.94;5035326;28;20111;-76
2023/04/14 07:35:24;;;;;;;6.65;3.53;;;;;;;9.03;100.00;99793.47;5042839;28;20392;-76
2023/04/14 07:37:49;;;;;;;6.53;3.22;;;;;;;9.02;100.00;99807.53;5024668;28;20048;-76
2023/04/14 07:40:15;;;;;;;6.43;2.95;;;;;;;8.95;100.00;99805.88;5039147;28;20116;-76
2023/04/14 07:42:41;;;;;;;8.20;3.88;;;;;;;8.89;100.00;99803.31;5046093;28;20088;-77
2023/04/14 07:45:07;;;;;;;6.03;3.03;;;;;;;8.71;100.00;99802.59;5025242;28;20033;-76
2023/04/14 07:47:32;;;;;;;6.63;2.90;;;;;;;8.64;100.00;99794.78;5041687;28;20036;-77
2023/04/14 07:49:58;;;;;;;6.13;2.88;;;;;;;8.74;100.00;99796.44;5043779;28;20487;-76
2023/04/14 07:52:23;;;;;;;5.72;2.92;;;;;;;8.80;100.00;99795.50;5048108;28;20118;-76
2023/04/14 07:54:48;;;;;;;5.82;3.03;;;;;;;8.74;100.00;99796.44;5042757;28;20065;-77
2023/04/14 07:57:14;;;;;;;7.20;3.25;;;;;;;8.67;100.00;99795.66;5048898;28;20395;-76
2023/04/14 07:59:41;;;;;;;5.43;2.92;;;;;;;8.71;100.00;99802.59;5027871;28;20561;-77
2023/04/14 08:02:07;;;;;;;6.35;3.65;;;;;;;8.69;100.00;99800.88;5031282;28;20066;-76
2023/04/14 08:04:33;;;;;;;6.53;2.90;;;;;;;8.77;100.00;99802.53;5041084;28;20042;-77
2023/04/14 08:06:58;;;;;;;7.53;2.72;;;;;;;8.85;100.00;99804.22;5042924;28;20491;-76
2023/04/14 08:09:23;;;;;;;7.47;3.63;;;;;;;8.77;100.00;99801.66;5041783;28;20041;-76
2023/04/14 08:11:49;;;;;;;7.18;3.30;;;;;;;8.72;100.00;99795.56;5043461;28;20075;-77
2023/04/14 08:14:14;;;;;;;6.57;2.92;;;;;;;8.63;100.00;99804.44;5046761;28;20110;-76
2023/04/14 08:16:40;;;;;;;7.95;2.70;;;;;;;8.62;100.00;99801.81;5032844;28;20061;-76
2023/04/14 08:19:05;;;;;;;5.97;2.83;;;;;;;8.46;100.00;99803.72;5044852;28;20053;-77
2023/04/14 08:21:31;;;;;;;5.22;3.03;;;;;;;8.31;100.00;99797.69;5041156;28;20048;-76
2023/04/14 08:23:57;;;;;;;5.55;2.97;;;;;;;8.31;100.00;99804.72;5052155;28;20040;-76
2023/04/14 08:26:22;;;;;;;7.28;3.03;;;;;;;8.35;100.00;99804.66;5045874;28;20040;-77
2023/04/14 08:28:48;;;;;;;6.90;3.35;;;;;;;8.28;100.00;99808.25;5044574;28;20048;-76
2023/04/14 08:31:13;;;;;;;8.35;3.65;;;;;;;8.27;100.00;99806.47;5044152;28;20088;-77
2023/04/14 08:33:38;;;;;;;6.88;2.80;;;;;;;8.26;100.00;99811.78;5049173;28;20029;-76
2023/04/14 08:36:04;;;;;;;8.05;3.50;;;;;;;8.30;100.00;99803.81;5045404;28;20044;-77
2023/04/14 08:38:29;;;;;;;6.20;3.45;;;;;;;8.38;100.00;99797.63;5051431;28;20112;-76
2023/04/14 08:40:55;;;;;;;6.35;3.30;;;;;;;8.32;100.00;99801.19;5037326;28;20130;-76
2023/04/14 08:43:21;;;;;;;6.80;3.35;;;;;;;8.31;100.00;99799.47;5046273;28;20399;-77
2023/04/14 08:45:50;;;;;;;7.47;3.30;;;;;;;8.29;100.00;99798.59;5047079;28;20063;-77
2023/04/14 08:48:18;;;;;;;7.07;4.05;;;;;;;8.20;100.00;99796.94;5048327;28;20407;-77
2023/04/14 08:51:06;;;;;;;5.80;3.45;;;;;;;8.18;100.00;99790.81;5049705;28;20395;-77
2023/04/14 08:53:32;;;;;;;9.13;5.10;;;;;;;8.16;100.00;99786.44;5017853;28;20118;-77
2023/04/14 08:56:02;;;;;;;7.50;3.47;;;;;;;8.25;100.00;99791.59;5046994;28;20045;-77
2023/04/14 08:58:28;;;;;;;7.13;3.80;;;;;;;8.21;100.00;99782.88;5045935;28;20045;-77
2023/04/14 09:00:54;;;;;;;8.48;3.95;;;;;;;8.15;100.00;99784.69;5045911;28;20097;-77
2023/04/14 09:03:20;;;;;;;5.43;2.95;;;;;;;8.14;100.00;99794.31;5028055;28;20072;-77
2023/04/14 09:05:46;;;;;;;6.13;2.97;;;;;;;8.21;100.00;99785.50;5029092;28;20056;-77
2023/04/14 09:08:12;;;;;;;6.13;2.80;;;;;;;8.21;100.00;99784.66;5048678;28;20037;-77
2023/04/14 09:10:39;;;;;;;6.05;3.00;;;;;;;8.23;100.00;99793.41;5042892;28;20419;-77
2023/04/14 09:13:07;;;;;;;5.75;2.83;;;;;;;8.14;100.00;99786.44;5045705;28;20052;-77
2023/04/14 09:15:33;;;;;;;3.85;2.40;;;;;;;8.10;100.00;99782.13;5043260;28;20034;-77
2023/04/14 09:17:59;;;;;;;5.50;2.25;;;;;;;8.06;100.00;99788.25;5050090;28;20048;-77
2023/04/14 09:20:24;;;;;;;5.05;2.42;;;;;;;7.95;100.00;99790.97;5052407;28;20041;-77
2023/04/14 09:22:52;;;;;;;4.90;2.50;;;;;;;7.93;100.00;99779.59;5033749;28;20039;-77
2023/04/14 09:25:18;;;;;;;8.30;3.25;;;;;;;7.92;100.00;99777.00;5047736;28;20036;-78
2023/04/14 09:27:44;;;;;;;4.85;2.55;;;;;;;7.95;100.00;99771.72;5044478;28;20040;-77
2023/04/14 09:30:10;;;;;;;6.15;2.97;;;;;;;7.99;100.00;99762.91;5044749;28;20025;-78
2023/04/14 09:32:35;;;;;;;7.57;2.90;;;;;;;7.87;100.00;99758.63;5047699;28;20037;-78
2023/04/14 09:35:01;;;;;;;4.57;2.53;;;;;;;7.96;100.00;99762.94;5046332;28;20036;-78
2023/04/14 09:37:40;;;;;;;4.85;2.25;;;;;;;8.00;100.00;99762.03;5045071;28;20033;-78
2023/04/14 09:40:05;;;;;;;5.82;2.85;;;;;;;7.99;100.00;99757.66;5043182;28;20033;-78
2023/04/14 09:42:41;;;;;;;6.03;2.58;;;;;;;7.90;100.00;99753.34;5047100;28;20033;-79
2023/04/14 09:45:08;;;;;;;7.00;2.47;;;;;;;7.93;100.00;99768.22;5045552;28;20106;-79
2023/04/14 09:47:33;;;;;;;4.22;2.42;;;;;;;7.92;100.00;99755.97;5027718;28;20034;-79
2023/04/14 09:50:02;;;;;;;4.80;2.35;;;;;;;7.99;100.00;99758.56;5048339;28;20041;-79
2023/04/14 09:52:43;;;;;;;5.88;2.75;;;;;;;7.92;100.00;99761.22;5031995;28;20041;-80
2023/04/14 09:55:10;;;;;;;6.28;3.13;;;;;;;7.90;100.00;99758.59;5044884;28;20033;-81
2023/04/14 09:57:37;;;;;;;4.70;2.72;;;;;;;7.96;100.00;99758.53;5049869;28;20029;-80
2023/04/14 10:00:23;;;;;;;5.82;2.40;;;;;;;7.98;100.00;99758.56;5047802;28;20478;-81
2023/04/14 10:02:57;;;;;;;6.70;2.58;;;;;;;7.94;100.00;99765.59;5029819;28;20036;-81
2023/04/14 10:05:27;;;;;;;4.00;2.15;;;;;;;7.90;100.00;99762.09;5050276;28;20139;-80
2023/04/14 10:07:54;;;;;;;4.43;2.38;;;;;;;7.99;100.00;99762.91;5032713;28;20033;-80
2023/04/14 10:10:19;;;;;;;4.90;2.60;;;;;;;7.98;100.00;99758.56;5048328;28;20179;-79
2023/04/14 10:12:45;;;;;;;6.60;2.22;;;;;;;7.93;100.00;99768.22;5047539;28;20073;-80
2023/04/14 10:15:11;;;;;;;5.22;2.55;;;;;;;7.87;100.00;99764.75;5048946;28;20033;-80
2023/04/14 10:17:38;;;;;;;4.43;1.90;;;;;;;7.95;100.00;99769.09;5029210;28;20032;-79
2023/04/14 10:20:04;;;;;;;5.38;2.85;;;;;;;7.89;100.00;99765.63;5047898;28;20040;-79
2023/04/14 10:22:30;;;;;;;5.78;2.70;;;;;;;8.06;100.00;99767.25;5029045;28;20034;-80
2023/04/14 10:24:58;;;;;;;6.03;2.72;;;;;;;8.04;100.00;99771.63;5033134;28;20041;-79
2023/04/14 10:27:26;;;;;;;7.50;2.83;;;;;;;7.92;100.00;99766.50;5044395;28;20029;-81
2023/04/14 10:29:52;;;;;;;4.55;2.55;;;;;;;7.87;100.00;99767.38;5051258;28;20483;-80
2023/04/14 10:32:19;;;;;;;6.28;2.72;;;;;;;7.92;100.00;99771.75;5052915;28;20064;-79
2023/04/14 10:34:58;;;;;;;4.82;2.40;;;;;;;8.02;100.00;99757.66;5032927;28;20029;-80
2023/04/14 10:37:24;;;;;;;3.72;2.25;;;;;;;7.92;100.00;99766.50;5028796;28;20029;-79
2023/04/14 10:39:57;;;;;;;5.15;2.80;;;;;;;7.90;100.00;99759.47;5044492;28;20507;-80
2023/04/14 10:42:23;;;;;;;6.95;2.92;;;;;;;7.89;100.00;99756.88;5030752;28;20033;-80
2023/04/14 10:45:00;;;;;;;6.30;3.03;;;;;;;7.92;100.00;99754.22;5031522;28;20037;-80
2023/04/14 10:47:26;;;;;;;7.63;2.95;;;;;;;7.99;100.00;99747.13;5054522;28;20127;-80
2023/04/14 10:49:55;;;;;;;5.65;3.15;;;;;;;8.01;100.00;99745.38;5036210;28;20034;-80
2023/04/14 10:52:21;;;;;;;5.03;3.05;;;;;;;8.11;100.00;99740.03;5053209;28;20032;-80
2023/04/14 10:55:06;;;;;;;6.07;3.03;;;;;;;8.27;100.00;99738.13;5053672;28;20080;-81
2023/04/14 10:57:35;;;;;;;6.38;3.60;;;;;;;8.39;100.00;99734.56;5028956;28;20038;-80
2023/04/14 11:00:19;;;;;;;6.55;3.35;;;;;;;8.29;100.00;99735.50;5044486;28;20043;-80
2023/04/14 11:02:58;;;;;;;5.20;3.33;;;;;;;8.21;100.00;99738.19;5039756;28;20056;-80
2023/04/14 11:05:24;;;;;;;4.95;3.00;;;;;;;8.11;100.00;99744.41;5046170;28;20105;-79
2023/04/14 11:07:57;;;;;;;4.80;3.10;;;;;;;8.12;100.00;99735.63;5028327;28;20104;-79
2023/04/14 11:10:23;;;;;;;5.82;3.42;;;;;;;8.15;100.00;99740.00;5030325;28;20037;-79
2023/04/14 11:13:04;;;;;;;6.38;3.83;;;;;;;8.13;100.00;99734.78;5046383;28;20406;-79
2023/04/14 11:15:50;;;;;;;7.43;3.72;;;;;;;8.19;100.00;99737.34;5043774;28;20055;-80
2023/04/14 11:18:19;;;;;;;5.82;3.50;;;;;;;8.23;100.00;99736.44;5032740;28;20061;-79
2023/04/14 11:20:45;;;;;;;5.78;3.33;;;;;;;8.16;100.00;99729.47;5028944;28;20033;-79
2023/04/14 11:23:15;;;;;;;5.60;3.25;;;;;;;8.27;100.00;99734.63;5018509;28;20414;-79
2023/04/14 11:25:40;;;;;;;7.07;3.25;;;;;;;8.31;100.00;99725.84;5034422;28;20037;-79
2023/04/14 11:28:06;;;;;;;7.45;3.38;;;;;;;8.31;100.00;99726.72;5041614;28;20036;-79
2023/04/14 11:30:32;;;;;;;4.20;2.83;;;;;;;8.30;100.00;99727.56;5035543;28;20037;-80
2023/04/14 11:32:57;;;;;;;7.10;3.47;;;;;;;8.22;100.00;99721.53;5049105;28;20120;-79
2023/04/14 11:35:25;;;;;;;5.97;3.20;;;;;;;8.26;100.00;99730.28;5043834;28;20037;-80
2023/04/14 11:37:58;;;;;;;5.30;3.13;;;;;;;8.25;100.00;99724.16;5047583;28;20033;-79